Time;durP1;ratioP1;P1;durP2;ratioP2;P2;SDS_P1;SDS_P2;PMS_P1;PMS_P2;Temp;Humidity;BMP_temperature;BMP_pressure;BME280_temperature;BME280_humidity;BME280_pressure;Samples;Min_cycle;Max_cycle;Signal;HPM_P1;HPM_P2
2023/10/22 00:00:43;;;;;;;11.45;3.85;;;;;;;22.62;44.48;65368.91;5071464;28;20200;-53
2023/10/22 00:03:09;;;;;;;15.20;3.55;;;;;;;22.57;45.04;65363.91;5071281;28;20209;-52
2023/10/22 00:05:34;;;;;;;9.55;2.70;;;;;;;22.45;46.58;65353.19;5071425;28;20762;-52
2023/10/22 00:07:59;;;;;;;12.52;3.53;;;;;;;22.20;48.53;65325.53;5071707;28;20217;-52
2023/10/22 00:10:25;;;;;;;11.73;3.03;;;;;;;22.10;49.19;65314.47;5071300;28;20209;-52
2023/10/22 00:12:50;;;;;;;13.52;3.53;;;;;;;22.02;49.93;65305.59;5071752;28;20298;-53
2023/10/22 00:15:16;;;;;;;13.05;3.30;;;;;;;22.00;50.08;65301.38;5071350;28;20613;-52
2023/10/22 00:17:41;;;;;;;7.53;2.80;;;;;;;21.94;49.94;65296.75;5069867;28;20212;-52
2023/10/22 00:20:08;;;;;;;10.50;3.38;;;;;;;21.91;50.07;65291.41;5069989;28;20189;-52
2023/10/22 00:22:40;;;;;;;8.38;2.83;;;;;;;21.91;49.75;65293.97;5071096;28;20762;-52
2023/10/22 00:25:06;;;;;;;13.73;2.72;;;;;;;21.92;49.11;65297.09;5070577;28;20300;-53
2023/10/22 00:27:32;;;;;;;10.20;3.40;;;;;;;21.80;49.13;65279.22;5070209;28;20215;-53
2023/10/22 00:29:59;;;;;;;6.95;2.42;;;;;;;21.90;49.53;65289.75;5070906;28;20614;-54
2023/10/22 00:32:25;;;;;;;9.18;2.67;;;;;;;21.84;48.94;65286.22;5070386;28;20216;-52
2023/10/22 00:34:51;;;;;;;11.13;2.88;;;;;;;21.84;49.35;65283.09;5071005;28;20200;-51
2023/10/22 00:37:17;;;;;;;8.13;2.88;;;;;;;21.82;49.23;65280.88;5070918;28;20215;-51
2023/10/22 00:39:42;;;;;;;16.50;3.20;;;;;;;21.67;50.00;65264.84;5071013;28;20173;-52
2023/10/22 00:42:09;;;;;;;6.82;2.58;;;;;;;21.63;50.50;65262.97;5070922;28;20216;-51
2023/10/22 00:44:35;;;;;;;11.65;3.35;;;;;;;21.68;51.17;65266.50;5069654;28;20203;-52
2023/10/22 00:47:02;;;;;;;8.95;3.35;;;;;;;21.50;51.70;65246.59;5070958;28;20217;-53
2023/10/22 00:49:28;;;;;;;8.27;2.92;;;;;;;21.41;52.09;65234.06;5070895;28;20214;-52
2023/10/22 00:51:56;;;;;;;8.10;3.25;;;;;;;21.37;52.31;65234.75;5070897;28;20208;-52
2023/10/22 00:54:25;;;;;;;10.48;2.70;;;;;;;21.26;53.32;65219.47;5070718;28;20720;-51
2023/10/22 00:56:51;;;;;;;9.18;3.25;;;;;;;21.16;53.53;65211.53;5070790;28;20213;-53
2023/10/22 00:59:17;;;;;;;8.00;3.28;;;;;;;21.19;54.04;65214.84;5069482;28;20189;-61
2023/10/22 01:01:43;;;;;;;10.57;3.45;;;;;;;21.18;53.79;65213.75;5070478;28;20586;-59
2023/10/22 01:04:09;;;;;;;6.25;3.05;;;;;;;21.14;54.09;65208.78;5069624;28;20199;-53
2023/10/22 01:06:38;;;;;;;10.02;3.22;;;;;;;21.17;54.06;65212.09;5070421;28;20216;-53
2023/10/22 01:09:05;;;;;;;10.27;3.20;;;;;;;21.26;53.45;65219.47;5068978;28;20204;-52
2023/10/22 01:11:32;;;;;;;11.55;3.40;;;;;;;21.39;53.04;65236.44;5070180;28;20574;-54
2023/10/22 01:13:57;;;;;;;6.78;3.38;;;;;;;21.31;52.99;65225.03;5070348;28;20717;-55
2023/10/22 01:19:07;;;;;;;11.02;3.22;;;;;;;21.27;52.91;65226.25;5070992;28;20625;-58
2023/10/22 01:21:33;;;;;;;13.13;3.25;;;;;;;21.21;52.94;65216.53;5070352;28;20248;-51
2023/10/22 01:23:58;;;;;;;12.93;3.50;;;;;;;21.23;53.09;65218.75;5070334;28;20200;-54
2023/10/22 01:26:24;;;;;;;9.98;3.30;;;;;;;21.14;53.29;65206.78;5068851;28;20295;-53
2023/10/22 01:28:49;;;;;;;12.90;3.17;;;;;;;21.11;53.21;65203.44;5070809;28;20192;-54
2023/10/22 01:31:16;;;;;;;9.65;2.88;;;;;;;21.13;52.83;65208.22;5069856;28;20679;-53
2023/10/22 01:33:42;;;;;;;9.13;3.03;;;;;;;21.15;52.18;65210.44;5069361;28;20200;-56
2023/10/22 01:36:08;;;;;;;11.73;3.17;;;;;;;21.15;52.04;65210.44;5070362;28;20201;-54
2023/10/22 01:38:33;;;;;;;7.75;3.00;;;;;;;21.16;51.69;65211.53;5070362;28;20530;-54
2023/10/22 01:41:05;;;;;;;8.43;2.70;;;;;;;21.20;51.24;65213.41;5069926;28;20666;-54
2023/10/22 01:43:30;;;;;;;10.90;3.40;;;;;;;21.29;50.77;65225.38;5070156;28;20208;-55
2023/10/22 01:45:56;;;;;;;8.43;3.60;;;;;;;21.28;50.51;65224.25;5070042;28;20197;-53
2023/10/22 01:48:21;;;;;;;12.75;2.85;;;;;;;21.37;50.37;65237.31;5070210;28;20250;-55
2023/10/22 01:50:47;;;;;;;11.13;3.00;;;;;;;21.29;50.44;65223.34;5069957;28;20269;-54
2023/10/22 01:53:12;;;;;;;8.05;3.03;;;;;;;21.41;49.71;65236.63;5069991;28;20209;-54
2023/10/22 01:55:37;;;;;;;7.57;2.72;;;;;;;21.45;49.57;65241.03;5068758;28;20196;-54
2023/10/22 01:58:04;;;;;;;11.52;3.13;;;;;;;21.44;49.47;65242.50;5070336;28;20607;-54
2023/10/22 02:00:32;;;;;;;12.45;2.55;;;;;;;21.51;49.53;65249.72;5069822;28;20205;-52
2023/10/22 02:02:57;;;;;;;6.65;2.65;;;;;;;21.38;50.17;65232.75;5068661;28;20221;-53
2023/10/22 02:05:23;;;;;;;9.63;3.25;;;;;;;21.25;50.76;65218.38;5070013;28;20666;-52
2023/10/22 02:07:48;;;;;;;8.30;2.75;;;;;;;21.21;51.02;65216.53;5069946;28;20215;-53
2023/10/22 02:10:14;;;;;;;9.65;2.53;;;;;;;21.08;51.45;65202.69;5069715;28;20219;-53
2023/10/22 02:12:39;;;;;;;11.75;3.03;;;;;;;21.19;51.31;65211.75;5069854;28;20308;-53
2023/10/22 02:15:05;;;;;;;8.48;2.97;;;;;;;21.05;52.17;65201.94;5071464;28;20209;-53
2023/10/22 02:17:31;;;;;;;10.27;3.22;;;;;;;20.92;52.60;65185.00;5073095;28;20215;-53
2023/10/22 02:19:56;;;;;;;13.02;3.03;;;;;;;20.94;51.79;65189.75;5073131;28;20201;-55
2023/10/22 02:22:21;;;;;;;6.20;2.78;;;;;;;20.88;51.70;65183.69;5072980;28;20621;-52
2023/10/22 02:24:47;;;;;;;10.32;2.70;;;;;;;20.79;51.79;65173.72;5073164;28;20203;-53
2023/10/22 02:27:12;;;;;;;12.90;3.15;;;;;;;20.66;52.31;65156.25;5073264;28;20625;-53
2023/10/22 02:29:38;;;;;;;14.73;3.17;;;;;;;20.70;51.09;65163.78;5071831;28;20212;-53
2023/10/22 02:32:05;;;;;;;9.18;2.78;;;;;;;20.76;50.79;65169.88;5073027;28;20243;-51
2023/10/22 02:34:30;;;;;;;9.55;2.95;;;;;;;20.80;51.37;65174.84;5073286;28;20177;-51
2023/10/22 02:36:56;;;;;;;12.23;3.47;;;;;;;20.72;51.39;65163.44;5072862;28;20290;-50
2023/10/22 02:39:21;;;;;;;7.65;3.00;;;;;;;20.62;51.95;65149.28;5072820;28;20220;-52
2023/10/22 02:41:47;;;;;;;6.97;2.80;;;;;;;20.48;52.75;65136.91;5072863;28;20223;-54
2023/10/22 02:44:13;;;;;;;11.50;3.30;;;;;;;20.40;53.33;65125.50;5072840;28;20311;-52
2023/10/22 02:46:38;;;;;;;10.27;3.97;;;;;;;20.33;53.43;65119.78;5072237;28;20247;-53
2023/10/22 02:49:04;;;;;;;9.77;3.70;;;;;;;20.25;53.88;65113.50;5072738;28;20201;-53
2023/10/22 02:51:29;;;;;;;9.00;3.25;;;;;;;20.25;53.89;65111.50;5072644;28;20225;-52
2023/10/22 02:53:55;;;;;;;6.32;2.60;;;;;;;20.24;53.51;65107.28;5072438;28;20574;-52
2023/10/22 02:56:23;;;;;;;13.07;3.65;;;;;;;20.19;53.68;65101.72;5072707;28;20657;-52
2023/10/22 02:58:48;;;;;;;11.60;3.50;;;;;;;20.21;52.96;65109.06;5072701;28;20792;-51
2023/10/22 03:01:16;;;;;;;7.75;2.83;;;;;;;20.20;53.73;65105.97;5072396;28;20227;-54
2023/10/22 03:03:43;;;;;;;12.02;3.28;;;;;;;20.28;53.17;65114.25;5071250;28;20219;-52
2023/10/22 03:06:12;;;;;;;9.05;3.30;;;;;;;20.23;53.22;65108.72;5072564;28;20284;-52
2023/10/22 03:08:41;;;;;;;11.32;3.00;;;;;;;20.08;53.66;65095.25;5072511;28;20235;-55
2023/10/22 03:11:19;;;;;;;9.45;3.20;;;;;;;20.06;53.76;65091.03;5072178;28;20717;-52
2023/10/22 03:13:45;;;;;;;13.40;4.03;;;;;;;20.02;53.85;65086.59;5072426;28;20192;-52
2023/10/22 03:16:15;;;;;;;8.23;3.35;;;;;;;19.90;54.33;65070.78;5072272;28;20249;-53
2023/10/22 03:18:42;;;;;;;11.15;3.50;;;;;;;19.89;54.29;65072.25;5072185;28;20205;-52
2023/10/22 03:21:16;;;;;;;10.43;3.15;;;;;;;19.94;53.95;65077.78;5072257;28;20200;-50
2023/10/22 03:23:42;;;;;;;14.07;3.60;;;;;;;19.87;54.06;65070.06;5072304;28;20205;-50
2023/10/22 03:26:09;;;;;;;8.93;3.22;;;;;;;19.90;54.93;65070.25;5070962;28;20246;-52
2023/10/22 03:28:36;;;;;;;7.45;3.72;;;;;;;19.85;54.39;65069.84;5070818;28;20212;-52
2023/10/22 03:31:05;;;;;;;12.90;3.90;;;;;;;19.81;54.18;65062.88;5071876;28;20754;-52
2023/10/22 03:33:31;;;;;;;12.35;3.55;;;;;;;19.83;54.28;65065.63;5072003;28;20199;-51
2023/10/22 03:35:58;;;;;;;10.30;3.63;;;;;;;19.79;54.11;65066.34;5072125;28;20196;-52
2023/10/22 03:38:24;;;;;;;11.15;3.42;;;;;;;19.78;53.88;65060.09;5072164;28;20219;-51
2023/10/22 03:40:56;;;;;;;11.68;3.15;;;;;;;19.82;53.50;65064.53;5072133;28;20200;-53
2023/10/22 03:43:22;;;;;;;9.73;3.60;;;;;;;19.86;52.94;65068.38;5071870;28;20213;-53
2023/10/22 03:45:47;;;;;;;8.23;2.92;;;;;;;19.90;52.34;65073.34;5071910;28;20199;-52
2023/10/22 03:48:13;;;;;;;10.85;3.30;;;;;;;19.96;52.84;65079.97;5071772;28;20576;-51
2023/10/22 03:50:39;;;;;;;11.25;3.35;;;;;;;19.99;52.13;65083.31;5071931;28;20687;-51
2023/10/22 03:53:05;;;;;;;9.70;3.03;;;;;;;19.87;53.22;65069.50;5071794;28;20614;-52
2023/10/22 03:55:30;;;;;;;10.00;3.92;;;;;;;19.89;52.89;65074.81;5071582;28;20238;-52
2023/10/22 03:57:55;;;;;;;13.90;3.72;;;;;;;19.88;52.63;65068.03;5071803;28;20229;-53
2023/10/22 04:00:21;;;;;;;8.48;3.50;;;;;;;19.84;52.87;65066.72;5071596;28;20201;-52
2023/10/22 04:02:47;;;;;;;10.13;3.80;;;;;;;19.74;53.26;65052.56;5069976;28;20238;-52
2023/10/22 04:05:12;;;;;;;14.63;4.57;;;;;;;19.71;53.48;65052.38;5071495;28;20272;-52
2023/10/22 04:07:37;;;;;;;9.35;4.10;;;;;;;19.70;54.20;65051.28;5071510;28;20231;-51
2023/10/22 04:10:09;;;;;;;12.10;4.45;;;;;;;19.57;53.84;65033.81;5070127;28;20712;-52
2023/10/22 04:12:35;;;;;;;9.57;3.95;;;;;;;19.61;53.80;65041.34;5071336;28;20244;-51
2023/10/22 04:15:01;;;;;;;12.75;3.63;;;;;;;19.61;53.68;65041.34;5071405;28;20236;-52
2023/10/22 04:17:26;;;;;;;9.15;3.03;;;;;;;19.61;54.58;65038.78;5071586;28;20218;-51
2023/10/22 04:19:51;;;;;;;11.27;3.72;;;;;;;19.66;55.50;65049.41;5071366;28;20188;-55
2023/10/22 04:22:17;;;;;;;11.65;4.38;;;;;;;19.45;55.97;65021.13;5071198;28;20682;-53
2023/10/22 04:24:42;;;;;;;10.50;3.55;;;;;;;19.39;56.60;65017.06;5071093;28;20211;-52
2023/10/22 04:27:08;;;;;;;10.82;3.33;;;;;;;19.38;57.19;65013.38;5069819;28;20233;-54
2023/10/22 04:29:33;;;;;;;9.38;3.58;;;;;;;19.24;57.93;65001.00;5071032;28;20320;-52
2023/10/22 04:31:59;;;;;;;11.38;4.05;;;;;;;19.20;58.19;64996.03;5070812;28;20270;-53
2023/10/22 04:34:24;;;;;;;7.97;3.25;;;;;;;19.17;59.21;64995.84;5070957;28;20196;-52
2023/10/22 04:36:50;;;;;;;15.40;3.95;;;;;;;19.38;58.67;65013.38;5070900;28;20215;-53
2023/10/22 04:39:15;;;;;;;14.02;3.85;;;;;;;18.92;59.89;64965.69;5070911;28;20199;-52
2023/10/22 04:41:43;;;;;;;12.70;4.10;;;;;;;19.04;60.32;64978.38;5069632;28;20213;-52
2023/10/22 04:44:08;;;;;;;11.48;3.90;;;;;;;19.03;60.00;64977.81;5070779;28;20196;-52
2023/10/22 04:46:40;;;;;;;13.20;4.53;;;;;;;18.63;60.40;64933.13;5070752;28;20226;-52
2023/10/22 04:49:06;;;;;;;10.95;4.20;;;;;;;18.59;60.38;64931.28;5070829;28;20255;-52
2023/10/22 04:51:31;;;;;;;10.20;3.90;;;;;;;18.49;61.41;64917.69;5070559;28;20221;-53
2023/10/22 04:53:57;;;;;;;14.55;4.05;;;;;;;18.48;61.19;64917.16;5070966;28;20215;-52
2023/10/22 04:56:22;;;;;;;13.20;4.63;;;;;;;18.42;61.01;64911.06;5070498;28;20283;-52
2023/10/22 04:58:48;;;;;;;11.68;4.25;;;;;;;18.79;59.96;64950.78;5070665;28;20265;-52
2023/10/22 05:01:14;;;;;;;12.38;3.78;;;;;;;18.61;59.99;64930.94;5070400;28;20279;-52
2023/10/22 05:03:39;;;;;;;9.95;4.32;;;;;;;18.69;59.35;64939.75;5070451;28;20227;-53
2023/10/22 05:06:09;;;;;;;9.85;3.80;;;;;;;18.68;59.91;64939.22;5070535;28;20185;-53
2023/10/22 05:08:35;;;;;;;11.48;4.30;;;;;;;18.51;59.98;64923.00;5070667;28;20192;-52
2023/10/22 05:11:04;;;;;;;11.20;3.90;;;;;;;18.59;60.42;64931.84;5070586;28;20208;-53
2023/10/22 05:13:30;;;;;;;9.80;4.90;;;;;;;18.56;59.71;64928.53;5070564;28;20184;-53
2023/10/22 05:15:56;;;;;;;13.10;5.15;;;;;;;18.62;60.25;64930.03;5070598;28;20547;-53
2023/10/22 05:18:22;;;;;;;11.60;3.95;;;;;;;18.75;60.39;64946.38;5070505;28;20217;-52
2023/10/22 05:20:48;;;;;;;12.20;4.97;;;;;;;18.59;60.92;64931.28;5070533;28;20192;-53
2023/10/22 05:23:14;;;;;;;18.77;4.35;;;;;;;18.87;59.48;64957.63;5070897;28;20200;-53
2023/10/22 05:25:41;;;;;;;12.70;4.50;;;;;;;18.72;59.49;64943.06;5070543;28;20188;-53
2023/10/22 05:28:06;;;;;;;16.73;4.80;;;;;;;18.74;59.83;64945.28;5070749;28;20221;-53
2023/10/22 05:30:32;;;;;;;9.40;3.55;;;;;;;18.61;60.67;64930.94;5069317;28;20213;-55
2023/10/22 05:32:57;;;;;;;11.77;6.72;;;;;;;18.40;61.53;64908.31;5070591;28;20254;-54
2023/10/22 05:35:23;;;;;;;12.05;4.97;;;;;;;18.58;61.12;64927.63;5069037;28;20578;-53
2023/10/22 05:37:51;;;;;;;11.45;4.22;;;;;;;18.50;62.09;64921.91;5070338;28;20207;-54
2023/10/22 05:40:16;;;;;;;12.65;4.68;;;;;;;18.44;63.09;64913.28;5070359;28;20206;-55
2023/10/22 05:42:42;;;;;;;13.73;6.28;;;;;;;18.42;63.70;64908.50;5070162;28;20291;-54
2023/10/22 05:45:09;;;;;;;11.90;4.13;;;;;;;18.66;62.73;64939.56;5070305;28;20719;-55
2023/10/22 05:47:35;;;;;;;11.77;4.50;;;;;;;18.67;61.82;64940.09;5069941;28;20286;-53
2023/10/22 05:50:01;;;;;;;10.65;4.13;;;;;;;18.61;62.14;64930.94;5071639;28;20208;-54
2023/10/22 05:52:28;;;;;;;9.25;4.28;;;;;;;18.69;62.36;64942.88;5073796;28;20242;-55
2023/10/22 05:54:54;;;;;;;10.48;4.50;;;;;;;18.75;63.53;64946.94;5073863;28;20215;-54
2023/10/22 05:57:22;;;;;;;13.23;3.97;;;;;;;18.69;64.43;64939.75;5073734;28;20201;-55
2023/10/22 05:59:49;;;;;;;14.45;4.53;;;;;;;18.37;66.08;64905.56;5073782;28;20250;-54
2023/10/22 06:02:14;;;;;;;11.63;3.70;;;;;;;18.42;67.13;64913.06;5073463;28;20224;-55
2023/10/22 06:04:40;;;;;;;10.40;4.05;;;;;;;18.81;65.41;64953.56;5073602;28;20569;-54
2023/10/22 06:07:07;;;;;;;15.73;4.55;;;;;;;18.64;66.95;64934.81;5073531;28;20297;-59
2023/10/22 06:09:34;;;;;;;16.48;5.22;;;;;;;18.72;67.01;64945.63;5073350;28;20242;-53
2023/10/22 06:12:00;;;;;;;9.23;4.40;;;;;;;18.56;67.85;64922.88;5072116;28;20218;-59
2023/10/22 06:14:26;;;;;;;16.42;5.07;;;;;;;18.67;67.70;64937.56;5073321;28;20211;-54
2023/10/22 06:16:51;;;;;;;10.88;5.20;;;;;;;18.78;77.45;64952.25;5072904;28;20205;-54
2023/10/22 06:19:17;;;;;;;9.95;4.22;;;;;;;18.84;68.22;64954.31;5073238;28;20188;-54
2023/10/22 06:21:43;;;;;;;9.75;4.07;;;;;;;18.69;67.53;64942.31;5073310;28;20208;-55
2023/10/22 06:24:09;;;;;;;14.55;5.30;;;;;;;18.47;69.74;64915.50;5073124;28;20189;-54
2023/10/22 06:26:35;;;;;;;16.92;7.43;;;;;;;18.48;71.09;64919.72;5072587;28;20212;-54
2023/10/22 06:29:00;;;;;;;15.18;6.35;;;;;;;18.73;69.20;64947.28;5073270;28;20219;-55
2023/10/22 06:31:26;;;;;;;17.80;6.55;;;;;;;18.73;69.68;64944.72;5072081;28;20569;-55
2023/10/22 06:33:51;;;;;;;12.73;6.00;;;;;;;18.79;70.13;64953.34;5072940;28;20606;-55
2023/10/22 06:36:21;;;;;;;18.95;6.55;;;;;;;18.66;71.51;64936.47;5072884;28;20227;-53
2023/10/22 06:38:47;;;;;;;13.13;6.65;;;;;;;18.96;70.76;64969.56;5071549;28;20181;-53
2023/10/22 06:41:26;;;;;;;19.70;7.65;;;;;;;18.59;73.09;64929.28;5072946;28;20181;-53
2023/10/22 06:43:53;;;;;;;18.65;7.97;;;;;;;18.65;70.73;64935.34;5072855;28;20193;-54
2023/10/22 06:46:19;;;;;;;17.50;7.50;;;;;;;18.90;68.71;64962.94;5071620;28;20192;-54
2023/10/22 06:48:45;;;;;;;15.65;6.38;;;;;;;18.79;68.24;64951.34;5072978;28;20327;-52
2023/10/22 06:51:12;;;;;;;23.90;7.53;;;;;;;18.92;69.66;64968.25;5072711;28;20277;-53
2023/10/22 06:53:38;;;;;;;15.98;7.60;;;;;;;18.98;69.16;64974.31;5072573;28;20350;-57
2023/10/22 06:56:05;;;;;;;20.58;7.95;;;;;;;19.02;78.36;64979.28;5072291;28;20185;-53
2023/10/22 06:58:32;;;;;;;18.33;7.22;;;;;;;19.55;78.32;65037.28;5072710;28;20189;-53
2023/10/22 07:01:07;;;;;;;20.85;9.40;;;;;;;19.85;72.18;65067.84;5071355;28;20181;-55
2023/10/22 07:03:34;;;;;;;23.45;9.63;;;;;;;19.98;68.51;65081.63;5071036;28;20204;-53
2023/10/22 07:06:00;;;;;;;22.55;9.77;;;;;;;19.98;68.62;65082.19;5072359;28;20195;-53
2023/10/22 07:08:27;;;;;;;24.38;9.40;;;;;;;19.71;70.78;65052.38;5072416;28;20694;-54
2023/10/22 07:10:52;;;;;;;17.45;7.85;;;;;;;19.67;68.99;65047.97;5072357;28;20212;-53
2023/10/22 07:13:20;;;;;;;16.92;8.45;;;;;;;19.86;68.91;65070.94;5071022;28;20590;-54
2023/10/22 07:15:46;;;;;;;16.67;8.05;;;;;;;19.90;70.11;65072.78;5072332;28;20192;-53
2023/10/22 07:18:12;;;;;;;16.83;8.57;;;;;;;19.91;70.03;65074.47;5072586;28;20244;-53
2023/10/22 07:20:37;;;;;;;17.73;8.02;;;;;;;19.92;70.22;65075.56;5071062;28;20225;-53
2023/10/22 07:23:04;;;;;;;18.52;8.15;;;;;;;20.28;68.45;65117.34;5072303;28;20212;-54
2023/10/22 07:25:29;;;;;;;15.57;7.65;;;;;;;20.46;66.71;65132.13;5072079;28;20196;-54
2023/10/22 07:27:55;;;;;;;15.65;7.70;;;;;;;20.51;66.79;65142.22;5071939;28;20205;-52
2023/10/22 07:30:20;;;;;;;19.80;7.25;;;;;;;20.51;65.34;65139.66;5072219;28;20690;-54
2023/10/22 07:32:49;;;;;;;19.35;8.05;;;;;;;20.17;69.22;65102.06;5071989;28;20220;-53
2023/10/22 07:35:16;;;;;;;17.42;8.05;;;;;;;20.21;69.31;65106.50;5071990;28;20205;-53
2023/10/22 07:37:44;;;;;;;14.98;7.65;;;;;;;20.62;66.92;65154.38;5072318;28;20219;-54
2023/10/22 07:40:10;;;;;;;15.88;7.32;;;;;;;20.60;65.97;65152.75;5071966;28;20188;-54
2023/10/22 07:42:36;;;;;;;13.63;7.13;;;;;;;20.62;65.81;65151.84;5072073;28;20221;-59
2023/10/22 07:45:02;;;;;;;17.17;7.57;;;;;;;20.61;65.25;65150.72;5072170;28;20180;-56
2023/10/22 07:47:28;;;;;;;17.00;7.97;;;;;;;20.37;67.91;65124.19;5072116;28;20857;-58
2023/10/22 07:49:53;;;;;;;16.10;6.65;;;;;;;20.60;66.17;65149.63;5071629;28;20307;-55
2023/10/22 07:52:18;;;;;;;11.30;6.43;;;;;;;20.72;66.45;65162.88;5071765;28;20270;-55
2023/10/22 07:54:47;;;;;;;16.42;5.80;;;;;;;20.57;67.46;65148.84;5071781;28;20213;-54
2023/10/22 07:57:13;;;;;;;15.18;6.10;;;;;;;20.93;66.03;65186.09;5071561;28;20213;-55
2023/10/22 07:59:41;;;;;;;18.50;6.63;;;;;;;21.01;62.30;65194.94;5071670;28;20193;-53
2023/10/22 08:02:06;;;;;;;14.27;6.22;;;;;;;20.84;63.37;65176.16;5071844;28;20225;-56
2023/10/22 08:04:32;;;;;;;19.92;6.18;;;;;;;20.85;62.89;65177.25;5071458;28;20560;-55
2023/10/22 08:06:57;;;;;;;13.57;6.32;;;;;;;21.13;62.41;65208.22;5070987;28;20219;-56
2023/10/22 08:09:23;;;;;;;15.55;5.70;;;;;;;21.19;62.03;65211.75;5071460;28;20176;-55
2023/10/22 08:11:48;;;;;;;12.88;5.80;;;;;;;21.18;61.64;65211.19;5070864;28;20209;-55
2023/10/22 08:14:15;;;;;;;15.35;5.75;;;;;;;21.52;58.12;65248.78;5070118;28;20192;-54
2023/10/22 08:16:40;;;;;;;13.85;5.85;;;;;;;21.63;57.30;65263.53;5069969;28;20213;-55
2023/10/22 08:19:06;;;;;;;11.35;5.47;;;;;;;21.82;56.69;65286.59;5071535;28;20725;-55
2023/10/22 08:21:31;;;;;;;18.95;6.47;;;;;;;21.65;57.92;65267.75;5071037;28;20637;-54
2023/10/22 08:23:57;;;;;;;16.20;6.20;;;;;;;21.82;58.56;65286.03;5070038;28;20254;-54
2023/10/22 08:26:23;;;;;;;18.55;6.07;;;;;;;21.62;58.50;65262.44;5070897;28;20224;-54
2023/10/22 08:28:49;;;;;;;15.10;5.57;;;;;;;21.85;57.97;65286.78;5071159;28;20189;-54
2023/10/22 08:33:42;;;;;;;18.65;7.40;;;;;;;21.91;58.02;65296.00;5029624;28;20214;-58
2023/10/22 08:36:08;;;;;;;15.63;5.47;;;;;;;21.84;58.97;65288.22;5030893;28;20190;-54
2023/10/22 08:38:34;;;;;;;13.93;5.57;;;;;;;22.05;57.50;65306.34;5031267;28;20186;-55
2023/10/22 08:41:06;;;;;;;18.63;6.43;;;;;;;22.00;57.55;65305.97;5013610;28;20252;-55
2023/10/22 08:43:32;;;;;;;18.45;6.40;;;;;;;22.00;57.49;65303.94;5031338;28;20186;-54
2023/10/22 08:45:58;;;;;;;16.25;5.72;;;;;;;22.06;57.49;65310.03;5031153;28;20205;-55
2023/10/22 08:48:26;;;;;;;14.27;5.25;;;;;;;22.30;56.94;65336.59;5031059;28;20237;-55
2023/10/22 08:50:52;;;;;;;15.73;6.97;;;;;;;22.34;57.56;65338.44;5030918;28;20244;-55
2023/10/22 08:53:18;;;;;;;14.18;6.05;;;;;;;22.70;57.34;65380.91;5031073;28;20245;-56
2023/10/22 08:55:46;;;;;;;16.20;6.00;;;;;;;23.22;55.59;65437.94;5030995;28;20585;-54
2023/10/22 08:58:16;;;;;;;12.25;5.68;;;;;;;23.45;54.23;65460.88;5030847;28;20213;-55
2023/10/22 09:00:47;;;;;;;16.27;6.00;;;;;;;23.52;52.98;65471.19;5030850;28;20277;-55
2023/10/22 09:03:21;;;;;;;10.90;5.20;;;;;;;23.67;53.05;65485.25;5013321;28;20209;-54
2023/10/22 09:05:47;;;;;;;12.90;5.35;;;;;;;23.06;54.50;65418.19;5030846;28;20190;-55
2023/10/22 09:08:14;;;;;;;12.95;5.55;;;;;;;23.34;51.76;65451.81;5012994;28;20222;-55
2023/10/22 09:10:40;;;;;;;25.73;5.47;;;;;;;23.30;49.52;65444.78;5030774;28;20216;-54
2023/10/22 09:13:15;;;;;;;12.60;5.78;;;;;;;22.86;52.37;65396.06;5030915;28;20214;-54
2023/10/22 09:15:46;;;;;;;15.02;5.13;;;;;;;23.16;49.34;65433.88;5030800;28;20200;-55
2023/10/22 09:18:14;;;;;;;18.02;5.35;;;;;;;23.47;48.80;65465.09;5012576;28;20725;-56
2023/10/22 09:20:41;;;;;;;17.33;5.20;;;;;;;23.95;50.91;65518.88;5011971;28;20289;-56
2023/10/22 09:23:20;;;;;;;15.20;4.60;;;;;;;24.06;47.07;65527.94;5028406;28;20730;-56
2023/10/22 09:25:48;;;;;;;10.93;3.97;;;;;;;24.29;45.92;65553.44;5031781;28;20190;-56
2023/10/22 09:28:16;;;;;;;14.48;4.60;;;;;;;24.71;46.13;65602.03;5032762;28;20267;-54
2023/10/22 09:30:42;;;;;;;12.63;4.43;;;;;;;24.96;42.71;65627.22;5032789;28;20237;-54
2023/10/22 09:33:09;;;;;;;17.42;5.38;;;;;;;25.36;44.42;65666.47;5032917;28;20647;-54
2023/10/22 09:35:36;;;;;;;8.02;4.28;;;;;;;25.49;41.99;65685.53;5015485;28;20775;-56
2023/10/22 09:38:02;;;;;;;13.75;3.53;;;;;;;25.46;40.30;65682.75;5016036;28;20252;-54
2023/10/22 09:40:34;;;;;;;13.55;3.92;;;;;;;25.58;39.32;65696.06;5033861;28;20228;-56
2023/10/22 09:43:02;;;;;;;14.07;4.43;;;;;;;25.93;39.58;65736.97;5033695;28;20217;-53
2023/10/22 09:45:30;;;;;;;18.90;4.82;;;;;;;26.22;38.89;65769.16;5033732;28;20196;-54
2023/10/22 09:47:56;;;;;;;26.30;5.13;;;;;;;26.20;37.85;65763.81;5034133;28;20218;-55
2023/10/22 09:50:23;;;;;;;16.52;5.40;;;;;;;26.32;37.39;65779.75;5033542;28;20725;-57
2023/10/22 09:52:51;;;;;;;19.77;4.85;;;;;;;26.35;37.04;65781.03;5033530;28;20206;-52
2023/10/22 09:55:19;;;;;;;21.17;4.75;;;;;;;26.77;36.55;65826.59;5033742;28;20194;-55
2023/10/22 09:57:46;;;;;;;23.10;5.30;;;;;;;27.12;36.07;65865.50;5033947;28;20221;-54
2023/10/22 10:00:15;;;;;;;20.58;5.05;;;;;;;27.20;35.61;65869.78;5033447;28;20193;-54
2023/10/22 10:02:42;;;;;;;21.35;5.93;;;;;;;27.12;35.63;65865.50;5033440;28;20217;-55
2023/10/22 10:05:10;;;;;;;20.40;5.03;;;;;;;27.62;35.11;65920.56;5033595;28;20197;-54
2023/10/22 10:07:40;;;;;;;24.77;5.40;;;;;;;27.90;34.81;65952.25;5033356;28;20214;-54
2023/10/22 10:10:07;;;;;;;24.25;5.65;;;;;;;27.79;35.09;65937.44;5033362;28;20220;-55
2023/10/22 10:12:40;;;;;;;14.68;5.18;;;;;;;28.07;34.14;65970.66;5015591;28;20708;-54
2023/10/22 10:15:06;;;;;;;19.17;4.50;;;;;;;27.92;34.03;65951.34;5015873;28;20272;-53
2023/10/22 10:17:52;;;;;;;25.35;5.25;;;;;;;27.92;33.44;65951.91;5033451;28;20711;-54
2023/10/22 10:20:39;;;;;;;24.45;5.75;;;;;;;28.20;33.19;65985.66;5015635;28;20224;-55
2023/10/22 10:23:05;;;;;;;18.45;4.93;;;;;;;27.84;34.14;65945.03;5033675;28;20308;-54
2023/10/22 10:25:35;;;;;;;18.35;4.85;;;;;;;27.62;33.98;65918.53;5033192;28;20669;-55
2023/10/22 10:28:05;;;;;;;20.40;5.10;;;;;;;27.27;34.75;65877.00;5033200;28;20221;-54
2023/10/22 10:30:31;;;;;;;18.77;4.45;;;;;;;27.33;34.60;65886.28;5033179;28;20218;-54
2023/10/22 10:32:57;;;;;;;16.30;4.95;;;;;;;27.24;35.25;65878.84;5033500;28;20206;-54
2023/10/22 10:35:23;;;;;;;16.52;4.45;;;;;;;27.07;35.01;65859.97;5032990;28;20754;-54
2023/10/22 10:38:14;;;;;;;23.77;4.72;;;;;;;26.64;35.51;65813.25;5033328;28;20214;-55
2023/10/22 10:40:51;;;;;;;20.70;4.72;;;;;;;27.37;34.81;65893.88;5033238;28;20194;-55
2023/10/22 10:43:17;;;;;;;24.90;5.88;;;;;;;27.57;35.49;65915.56;5033197;28;20245;-56
2023/10/22 10:46:21;;;;;;;21.65;5.03;;;;;;;27.71;34.54;65931.16;5015287;28;20198;-54
2023/10/22 10:48:49;;;;;;;17.65;5.25;;;;;;;27.21;35.24;65872.94;5033030;28;20273;-54
2023/10/22 10:51:16;;;;;;;17.55;5.22;;;;;;;26.97;35.72;65849.38;5032805;28;20260;-54
2023/10/22 10:54:00;;;;;;;20.95;5.65;;;;;;;26.91;35.77;65839.56;5033152;28;20268;-52
2023/10/22 10:56:46;;;;;;;25.25;4.95;;;;;;;26.54;36.52;65802.13;5032721;28;20210;-52
2023/10/22 10:59:23;;;;;;;19.77;4.45;;;;;;;26.35;36.26;65778.44;5032919;28;20655;-59
2023/10/22 11:02:00;;;;;;;17.02;4.10;;;;;;;26.18;36.63;65761.59;5032640;28;20689;-52
2023/10/22 11:04:33;;;;;;;19.40;5.28;;;;;;;26.08;36.92;65748.44;5032619;28;20233;-52
2023/10/22 11:06:59;;;;;;;22.77;5.25;;;;;;;26.36;37.06;65779.00;5014583;28;20228;-54
2023/10/22 11:09:25;;;;;;;22.58;4.72;;;;;;;26.22;36.95;65766.59;5032458;28;20711;-52
2023/10/22 11:11:58;;;;;;;15.40;4.55;;;;;;;25.95;37.82;65736.59;5032511;28;20218;-53
2023/10/22 11:14:25;;;;;;;14.82;4.50;;;;;;;25.93;37.78;65731.22;5032496;28;20200;-52
2023/10/22 11:16:56;;;;;;;26.45;5.20;;;;;;;25.86;38.05;65726.59;5014676;28;20680;-52
2023/10/22 11:19:26;;;;;;;22.25;4.72;;;;;;;25.95;37.69;65736.03;5032215;28;20206;-53
2023/10/22 11:21:56;;;;;;;17.77;4.28;;;;;;;26.24;37.76;65765.69;5032549;28;20241;-53
2023/10/22 11:24:28;;;;;;;22.10;5.55;;;;;;;26.68;37.59;65816.59;5032390;28;20228;-52
2023/10/22 11:26:55;;;;;;;18.05;4.80;;;;;;;26.66;37.20;65811.78;5032297;28;20253;-51
2023/10/22 11:29:21;;;;;;;22.98;5.22;;;;;;;26.88;36.79;65836.81;5032280;28;20198;-52
2023/10/22 11:31:57;;;;;;;14.63;4.55;;;;;;;26.74;36.99;65820.69;5031991;28;20225;-52